Time;durP1;ratioP1;P1;durP2;ratioP2;P2;SDS_P1;SDS_P2;PMS_P1;PMS_P2;Temp;Humidity;BMP_temperature;BMP_pressure;BME280_temperature;BME280_humidity;BME280_pressure;Samples;Min_cycle;Max_cycle;Signal;HPM_P1;HPM_P2
2023/07/08 00:00:28;;;;;;;1999.90;999.90;;;23.90;16.60;;;;;;5014700;28;20201;-69
2023/07/08 00:02:54;;;;;;;1999.90;999.90;;;23.80;18.60;;;;;;5014512;28;20383;-70
2023/07/08 00:05:21;;;;;;;1999.90;999.90;;;23.80;19.20;;;;;;5014924;28;20404;-68
2023/07/08 00:07:47;;;;;;;1999.90;999.90;;;23.80;24.50;;;;;;5014367;28;20200;-69
2023/07/08 00:10:17;;;;;;;1999.90;999.90;;;23.70;26.60;;;;;;5014571;28;20470;-68
2023/07/08 00:12:45;;;;;;;1999.90;999.90;;;23.60;26.20;;;;;;5014062;28;20375;-69
2023/07/08 00:15:11;;;;;;;1999.90;999.90;;;23.30;20.80;;;;;;5014749;28;20432;-69
2023/07/08 00:17:37;;;;;;;1999.90;999.90;;;23.30;22.10;;;;;;5014460;28;20418;-69
2023/07/08 00:20:35;;;;;;;1999.90;999.90;;;23.20;23.50;;;;;;5014609;28;20456;-69
2023/07/08 00:23:01;;;;;;;1999.90;999.90;;;23.20;24.70;;;;;;5013746;28;20280;-69
2023/07/08 00:25:27;;;;;;;1999.90;999.90;;;23.30;26.10;;;;;;5014196;28;20385;-69
2023/07/08 00:27:53;;;;;;;1999.90;999.90;;;23.10;34.70;;;;;;5014179;28;20413;-69
2023/07/08 00:30:28;;;;;;;1999.90;999.90;;;23.10;40.60;;;;;;5013973;28;20383;-69
2023/07/08 00:32:55;;;;;;;1999.90;999.90;;;23.00;43.60;;;;;;5014042;28;20183;-69
2023/07/08 00:35:35;;;;;;;1999.90;999.90;;;23.00;48.70;;;;;;5014003;28;20378;-69
2023/07/08 00:38:26;;;;;;;1999.90;999.90;;;22.90;48.90;;;;;;5013837;28;20481;-69
2023/07/08 00:41:30;;;;;;;1999.90;999.90;;;22.90;49.10;;;;;;5013859;28;20752;-69
2023/07/08 00:43:57;;;;;;;1999.90;999.90;;;23.00;49.30;;;;;;5011833;28;20405;-69
2023/07/08 00:46:29;;;;;;;1999.90;999.90;;;23.00;49.10;;;;;;5013812;28;20808;-69
2023/07/08 00:49:07;;;;;;;1999.90;999.90;;;23.00;46.20;;;;;;5013386;28;20396;-68
2023/07/08 00:51:33;;;;;;;1999.90;999.90;;;23.10;47.50;;;;;;5012625;28;20407;-69
2023/07/08 00:53:59;;;;;;;1999.90;999.90;;;23.10;51.80;;;;;;5012921;28;20386;-68
2023/07/08 00:56:57;;;;;;;1999.90;999.90;;;23.10;50.30;;;;;;5012803;28;20440;-69
2023/07/08 00:59:33;;;;;;;1999.90;999.90;;;23.20;45.90;;;;;;5004074;28;20200;-68
2023/07/08 01:02:03;;;;;;;1999.90;999.90;;;23.20;49.50;;;;;;5012422;28;20382;-68
2023/07/08 01:04:37;;;;;;;1999.90;999.90;;;23.20;51.80;;;;;;5012790;28;20378;-69
2023/07/08 01:07:04;;;;;;;1999.90;999.90;;;23.20;45.00;;;;;;5012756;28;20431;-69
2023/07/08 01:09:40;;;;;;;1999.90;999.90;;;23.20;43.20;;;;;;5012771;28;20491;-68
2023/07/08 01:12:10;;;;;;;1999.90;999.90;;;23.20;41.30;;;;;;5012377;28;20411;-69
2023/07/08 01:14:38;;;;;;;1999.90;999.90;;;23.20;38.40;;;;;;5012677;28;20485;-69
2023/07/08 01:17:04;;;;;;;1999.90;999.90;;;23.20;36.50;;;;;;5012314;28;20458;-69
2023/07/08 01:19:33;;;;;;;1999.90;999.90;;;23.20;35.30;;;;;;5011775;28;20517;-68
2023/07/08 01:22:04;;;;;;;1999.90;999.90;;;23.20;35.30;;;;;;5012222;28;20240;-69
2023/07/08 01:24:31;;;;;;;1999.90;999.90;;;23.20;34.30;;;;;;5012519;28;20409;-68
2023/07/08 01:26:57;;;;;;;1999.90;999.90;;;23.20;35.30;;;;;;5012204;28;20434;-68
2023/07/08 01:29:23;;;;;;;1999.90;999.90;;;23.10;35.20;;;;;;5012522;28;20383;-68
2023/07/08 01:31:49;;;;;;;1999.90;999.90;;;23.10;34.90;;;;;;5012187;28;20462;-68
2023/07/08 01:34:17;;;;;;;1999.90;999.90;;;23.10;36.70;;;;;;5012331;28;20414;-69
2023/07/08 01:36:49;;;;;;;1999.90;999.90;;;23.10;36.60;;;;;;5012309;28;20437;-68
2023/07/08 01:39:17;;;;;;;1999.90;999.90;;;23.10;37.90;;;;;;5012200;28;20498;-68
2023/07/08 01:41:44;;;;;;;1999.90;999.90;;;23.00;39.00;;;;;;5011959;28;20383;-68
2023/07/08 01:44:41;;;;;;;1999.90;999.90;;;22.90;40.90;;;;;;5012296;28;20393;-69
2023/07/08 01:47:10;;;;;;;1999.90;999.90;;;22.90;40.80;;;;;;4989658;28;20415;-68
2023/07/08 01:49:38;;;;;;;1999.90;999.90;;;22.90;39.20;;;;;;5012313;28;20726;-69
2023/07/08 01:52:05;;;;;;;1999.90;999.90;;;22.90;37.40;;;;;;5011925;28;20381;-68
2023/07/08 01:54:31;;;;;;;1999.90;999.90;;;22.80;37.20;;;;;;5012165;28;20753;-69
2023/07/08 01:56:57;;;;;;;1999.90;999.90;;;22.70;40.70;;;;;;5012045;28;20417;-69
2023/07/08 01:59:23;;;;;;;1999.90;999.90;;;22.60;41.90;;;;;;5012070;28;20572;-68
2023/07/08 02:01:54;;;;;;;1999.90;999.90;;;22.60;42.00;;;;;;5011821;28;20777;-68
2023/07/08 02:04:20;;;;;;;1999.90;999.90;;;22.50;44.20;;;;;;5012096;28;20394;-69
2023/07/08 02:06:52;;;;;;;1999.90;999.90;;;22.50;44.80;;;;;;5012133;28;20487;-69
2023/07/08 02:09:17;;;;;;;1999.90;999.90;;;22.40;45.70;;;;;;5012193;28;20393;-68
2023/07/08 02:11:43;;;;;;;1999.90;999.90;;;22.30;46.00;;;;;;5011651;28;20404;-69
2023/07/08 02:14:08;;;;;;;1999.90;999.90;;;22.20;46.50;;;;;;5012036;28;20181;-69
2023/07/08 02:16:34;;;;;;;1999.90;999.90;;;22.20;46.10;;;;;;5011727;28;20211;-68
2023/07/08 02:18:59;;;;;;;1999.90;999.90;;;22.20;45.60;;;;;;5011749;28;20655;-68
2023/07/08 02:21:25;;;;;;;1999.90;999.90;;;22.10;44.50;;;;;;5011559;28;20577;-69
2023/07/08 02:23:52;;;;;;;1999.90;999.90;;;22.10;44.00;;;;;;5011921;28;20247;-68
2023/07/08 02:26:17;;;;;;;1999.90;999.90;;;22.10;44.10;;;;;;5011889;28;20189;-68
2023/07/08 02:28:43;;;;;;;1999.90;999.90;;;22.10;44.60;;;;;;5011807;28;20390;-69
2023/07/08 02:31:08;;;;;;;1999.90;999.90;;;22.00;45.00;;;;;;5012644;28;20192;-69
2023/07/08 02:33:34;;;;;;;1999.90;999.90;;;21.90;45.50;;;;;;5015524;28;20184;-68
2023/07/08 02:36:03;;;;;;;1999.90;999.90;;;21.90;46.40;;;;;;5015402;28;20268;-68
2023/07/08 02:38:28;;;;;;;1999.90;999.90;;;21.70;47.80;;;;;;5015390;28;20244;-68
2023/07/08 02:40:54;;;;;;;1999.90;999.90;;;21.70;49.60;;;;;;5015159;28;20489;-67
2023/07/08 02:43:19;;;;;;;1999.90;999.90;;;21.60;48.60;;;;;;5015340;28;20165;-69
2023/07/08 02:45:52;;;;;;;1999.90;999.90;;;21.60;48.30;;;;;;5015192;28;20608;-69
2023/07/08 02:48:18;;;;;;;1999.90;999.90;;;21.50;50.40;;;;;;5015317;28;20176;-68
2023/07/08 02:50:44;;;;;;;1999.90;999.90;;;21.40;54.70;;;;;;5015378;28;20800;-68
2023/07/08 02:53:09;;;;;;;1999.90;999.90;;;21.30;57.90;;;;;;5015130;28;20415;-69
2023/07/08 02:55:35;;;;;;;1999.90;999.90;;;21.20;58.40;;;;;;5015069;28;20180;-68
2023/07/08 02:58:00;;;;;;;1999.90;999.90;;;21.10;57.50;;;;;;5014990;28;20180;-68
2023/07/08 03:00:26;;;;;;;1999.90;999.90;;;21.00;57.70;;;;;;5014935;28;20605;-69
2023/07/08 03:02:52;;;;;;;1999.90;999.90;;;21.00;58.90;;;;;;5014669;28;20164;-68
2023/07/08 03:05:17;;;;;;;1999.90;999.90;;;21.00;62.90;;;;;;5015006;28;20532;-68
2023/07/08 03:07:43;;;;;;;1999.90;999.90;;;21.00;65.60;;;;;;5014783;28;20188;-68
2023/07/08 03:10:09;;;;;;;1999.90;999.90;;;20.90;70.90;;;;;;5014827;28;20264;-68
2023/07/08 03:12:34;;;;;;;1999.90;999.90;;;20.80;77.50;;;;;;5014576;28;20180;-69
2023/07/08 03:15:00;;;;;;;1999.90;999.90;;;20.80;75.70;;;;;;5014768;28;20417;-68
2023/07/08 03:17:26;;;;;;;1999.90;999.90;;;20.70;75.40;;;;;;5014500;28;20217;-69
2023/07/08 03:19:51;;;;;;;1999.90;999.90;;;20.60;80.60;;;;;;5014638;28;20245;-68
2023/07/08 03:22:17;;;;;;;1999.90;999.90;;;20.60;83.00;;;;;;5014360;28;20189;-68
2023/07/08 03:24:45;;;;;;;1999.90;999.90;;;20.50;85.80;;;;;;5014597;28;20175;-69
2023/07/08 03:27:13;;;;;;;1999.90;999.90;;;20.50;85.70;;;;;;5014439;28;20197;-68
2023/07/08 03:29:39;;;;;;;1999.90;999.90;;;20.40;88.70;;;;;;5014488;28;20402;-69
2023/07/08 03:32:05;;;;;;;1999.90;999.90;;;20.30;88.80;;;;;;5014178;28;20385;-69
2023/07/08 03:34:30;;;;;;;1999.90;999.90;;;20.40;90.00;;;;;;5014461;28;20170;-68
2023/07/08 03:36:56;;;;;;;1999.90;999.90;;;20.30;87.30;;;;;;5014247;28;20438;-68
2023/07/08 03:39:25;;;;;;;1999.90;999.90;;;20.30;85.90;;;;;;5014360;28;20288;-68
2023/07/08 03:41:51;;;;;;;1999.90;999.90;;;20.20;85.30;;;;;;5013915;28;20168;-69
2023/07/08 03:44:17;;;;;;;1999.90;999.90;;;20.20;87.50;;;;;;5013511;28;20409;-69
2023/07/08 03:46:49;;;;;;;1999.90;999.90;;;20.10;89.20;;;;;;5014324;28;20471;-69
2023/07/08 03:49:15;;;;;;;1999.90;999.90;;;20.10;90.90;;;;;;5014048;28;20492;-68
2023/07/08 03:51:42;;;;;;;1999.90;999.90;;;20.10;90.70;;;;;;5013810;28;20385;-69
2023/07/08 03:54:12;;;;;;;1999.90;999.90;;;20.10;90.60;;;;;;5014003;28;20421;-68
2023/07/08 03:56:38;;;;;;;1999.90;999.90;;;20.10;91.40;;;;;;5013847;28;20522;-68
2023/07/08 03:59:04;;;;;;;1999.90;999.90;;;20.10;91.30;;;;;;5014264;28;20474;-69
2023/07/08 04:01:30;;;;;;;1999.90;999.90;;;20.20;92.10;;;;;;5014891;28;20748;-69
2023/07/08 04:03:58;;;;;;;1999.90;999.90;;;20.10;92.70;;;;;;5015644;28;20178;-69
2023/07/08 04:06:25;;;;;;;1999.90;999.90;;;20.20;93.20;;;;;;5015036;28;20196;-69
2023/07/08 04:08:51;;;;;;;1999.90;999.90;;;20.10;93.70;;;;;;5015109;28;20430;-69
2023/07/08 04:11:21;;;;;;;1999.90;999.90;;;20.10;94.30;;;;;;5015021;28;20410;-69
2023/07/08 04:13:47;;;;;;;1999.90;999.90;;;20.10;95.20;;;;;;5015198;28;20396;-69
2023/07/08 04:16:24;;;;;;;1999.90;999.90;;;20.10;95.70;;;;;;5014662;28;20451;-69
2023/07/08 04:18:50;;;;;;;1999.90;999.90;;;20.10;96.00;;;;;;5015067;28;20944;-69
2023/07/08 04:21:17;;;;;;;1999.90;999.90;;;20.10;96.80;;;;;;5014577;28;20440;-69
2023/07/08 04:23:43;;;;;;;1999.90;999.90;;;20.10;96.60;;;;;;5014865;28;20406;-69
2023/07/08 04:26:08;;;;;;;1999.90;999.90;;;20.10;97.20;;;;;;5014734;28;20440;-69
2023/07/08 04:28:34;;;;;;;1999.90;999.90;;;20.10;98.10;;;;;;5014783;28;20411;-69
2023/07/08 04:30:59;;;;;;;1999.90;999.90;;;20.10;98.00;;;;;;5014392;28;20170;-69
2023/07/08 04:33:25;;;;;;;1999.90;999.90;;;20.10;97.30;;;;;;5014840;28;20174;-69
2023/07/08 04:35:51;;;;;;;1999.90;999.90;;;20.10;97.30;;;;;;5014626;28;20245;-69
2023/07/08 04:38:22;;;;;;;1999.90;999.90;;;20.10;97.20;;;;;;5014689;28;20207;-68
2023/07/08 04:40:50;;;;;;;1999.90;999.90;;;19.90;98.20;;;;;;5014447;28;20640;-68
2023/07/08 04:43:16;;;;;;;1999.90;999.90;;;19.80;99.30;;;;;;5014632;28;20432;-69
2023/07/08 04:45:45;;;;;;;1999.90;999.90;;;19.80;99.90;;;;;;5014652;28;20894;-69
2023/07/08 04:48:14;;;;;;;1999.90;999.90;;;19.80;99.90;;;;;;5014507;28;20406;-69
2023/07/08 04:50:44;;;;;;;1999.90;999.90;;;19.80;99.90;;;;;;5014613;28;20398;-69
2023/07/08 04:53:11;;;;;;;1999.90;999.90;;;19.90;99.90;;;;;;5014227;28;20416;-68
2023/07/08 04:55:41;;;;;;;1999.90;999.90;;;19.90;99.90;;;;;;5012883;28;20405;-68
2023/07/08 04:58:07;;;;;;;1999.90;999.90;;;20.10;99.90;;;;;;5013009;28;20397;-68
2023/07/08 05:00:33;;;;;;;1999.90;999.90;;;20.20;99.90;;;;;;5012762;28;20453;-69
2023/07/08 05:02:59;;;;;;;1999.90;999.90;;;20.30;99.90;;;;;;5012646;28;20900;-69
2023/07/08 05:05:24;;;;;;;1999.90;999.90;;;20.40;99.90;;;;;;5012750;28;20182;-68
2023/07/08 05:07:50;;;;;;;1999.90;999.90;;;20.50;99.90;;;;;;5012592;28;20195;-68
2023/07/08 05:10:16;;;;;;;1999.90;999.90;;;20.60;99.90;;;;;;5012608;28;20259;-69
2023/07/08 05:12:42;;;;;;;1999.90;999.90;;;20.70;99.90;;;;;;5012337;28;20251;-68
2023/07/08 05:15:09;;;;;;;1999.90;999.90;;;20.80;99.90;;;;;;5012616;28;20432;-68
2023/07/08 05:17:34;;;;;;;1999.90;999.90;;;21.00;99.90;;;;;;5012560;28;20970;-68
2023/07/08 05:20:00;;;;;;;1999.90;999.90;;;21.10;99.90;;;;;;5012448;28;20436;-67
2023/07/08 05:22:27;;;;;;;1999.90;999.90;;;21.20;99.90;;;;;;5008850;28;20191;-69
2023/07/08 05:24:56;;;;;;;1999.90;999.90;;;21.30;99.90;;;;;;5012808;28;20219;-69
2023/07/08 05:27:23;;;;;;;1999.90;999.90;;;21.40;99.90;;;;;;5014198;28;20402;-68
2023/07/08 05:29:49;;;;;;;1999.90;999.90;;;21.40;99.90;;;;;;5014075;28;20402;-69
2023/07/08 05:32:15;;;;;;;1999.90;999.90;;;21.50;99.90;;;;;;5013428;28;20443;-69
2023/07/08 05:34:40;;;;;;;1999.90;999.90;;;21.50;99.90;;;;;;5013152;28;20466;-68
2023/07/08 05:37:06;;;;;;;1999.90;999.90;;;21.60;99.90;;;;;;5010131;28;20205;-69
2023/07/08 05:39:32;;;;;;;1999.90;999.90;;;21.70;99.90;;;;;;5010275;28;20204;-69
2023/07/08 05:41:58;;;;;;;1999.90;999.90;;;21.90;99.90;;;;;;5011802;28;20600;-69
2023/07/08 05:44:23;;;;;;;1999.90;999.90;;;21.90;99.70;;;;;;5012211;28;20382;-69
2023/07/08 05:46:50;;;;;;;1999.90;999.90;;;21.90;99.90;;;;;;5012175;28;20196;-68
2023/07/08 05:49:16;;;;;;;1999.90;999.90;;;21.90;99.90;;;;;;5012186;28;20713;-68
2023/07/08 05:51:43;;;;;;;1999.90;999.90;;;21.80;99.90;;;;;;5012005;28;20894;-68
2023/07/08 05:54:08;;;;;;;1999.90;999.90;;;21.80;99.90;;;;;;5012141;28;20382;-68
2023/07/08 05:56:34;;;;;;;1999.90;999.90;;;21.80;99.90;;;;;;5012030;28;20467;-68
2023/07/08 05:58:59;;;;;;;1999.90;999.90;;;21.80;99.90;;;;;;5012432;28;20626;-69
2023/07/08 06:01:25;;;;;;;1999.90;999.90;;;21.80;99.90;;;;;;5011797;28;20169;-69
2023/07/08 06:03:50;;;;;;;1999.90;999.90;;;21.80;99.90;;;;;;5012019;28;20165;-68
2023/07/08 06:06:16;;;;;;;1999.90;999.90;;;21.80;99.90;;;;;;5013318;28;20236;-69
2023/07/08 06:08:42;;;;;;;1999.90;999.90;;;21.90;99.90;;;;;;5016013;28;20169;-69
2023/07/08 06:11:08;;;;;;;1999.90;999.90;;;21.80;99.90;;;;;;5015667;28;20381;-68
2023/07/08 06:13:33;;;;;;;1999.90;999.90;;;21.80;99.90;;;;;;5015946;28;20169;-69
2023/07/08 06:15:59;;;;;;;1999.90;999.90;;;21.80;99.90;;;;;;5015683;28;20781;-69
2023/07/08 06:18:25;;;;;;;1999.90;999.90;;;21.80;99.80;;;;;;5015768;28;20177;-69
2023/07/08 06:20:52;;;;;;;1999.90;999.90;;;21.70;98.40;;;;;;5015620;28;20201;-69
2023/07/08 06:23:18;;;;;;;1999.90;999.90;;;21.80;98.60;;;;;;5015765;28;20169;-68
2023/07/08 06:25:43;;;;;;;1999.90;999.90;;;21.80;98.50;;;;;;5015616;28;20385;-69
2023/07/08 06:28:09;;;;;;;1999.90;999.90;;;21.80;98.60;;;;;;5015669;28;20172;-69
2023/07/08 06:30:34;;;;;;;1999.90;999.90;;;21.80;98.30;;;;;;5017275;28;20181;-69
2023/07/08 06:33:00;;;;;;;1999.90;999.90;;;21.80;98.10;;;;;;5016617;28;20180;-69
2023/07/08 06:35:25;;;;;;;1999.90;999.90;;;21.90;98.50;;;;;;5016680;28;20242;-69
2023/07/08 06:37:51;;;;;;;1999.90;999.90;;;21.90;98.20;;;;;;5016708;28;20199;-69
2023/07/08 06:40:18;;;;;;;1999.90;999.90;;;21.90;97.40;;;;;;5017289;28;20549;-69
2023/07/08 06:42:44;;;;;;;1999.90;999.90;;;21.90;96.30;;;;;;5016914;28;20184;-69
2023/07/08 06:45:10;;;;;;;1999.90;999.90;;;22.00;96.40;;;;;;5016806;28;20399;-69
2023/07/08 06:47:36;;;;;;;1999.90;999.90;;;21.90;97.70;;;;;;5016605;28;20549;-69
2023/07/08 06:50:02;;;;;;;1999.90;999.90;;;21.90;99.10;;;;;;5016772;28;20382;-69
2023/07/08 06:52:33;;;;;;;1999.90;999.90;;;21.90;99.90;;;;;;5015826;28;20196;-69
2023/07/08 06:55:01;;;;;;;1999.90;999.90;;;21.90;99.90;;;;;;5016635;28;20382;-69
2023/07/08 06:57:26;;;;;;;1999.90;999.90;;;21.90;99.90;;;;;;5016353;28;20406;-69
2023/07/08 06:59:52;;;;;;;1999.90;999.90;;;21.90;99.90;;;;;;5016352;28;20418;-69
2023/07/08 07:02:18;;;;;;;1999.90;999.90;;;22.00;99.90;;;;;;5015694;28;20165;-69
2023/07/08 07:04:43;;;;;;;1999.90;999.90;;;22.10;99.90;;;;;;5016277;28;20619;-69
2023/07/08 07:07:09;;;;;;;1999.90;999.90;;;22.20;99.90;;;;;;5016159;28;20196;-69
2023/07/08 07:09:35;;;;;;;1999.90;999.90;;;22.40;99.90;;;;;;5016108;28;20172;-69
2023/07/08 07:12:00;;;;;;;1999.90;999.90;;;22.50;99.60;;;;;;5015993;28;20201;-69
2023/07/08 07:14:26;;;;;;;1999.90;999.90;;;22.50;99.90;;;;;;5016036;28;20168;-69
2023/07/08 07:16:51;;;;;;;1999.90;999.90;;;22.50;99.90;;;;;;5015657;28;20687;-69
2023/07/08 07:19:17;;;;;;;1999.90;999.90;;;22.70;99.60;;;;;;5015057;28;20270;-69
2023/07/08 07:21:43;;;;;;;1999.90;999.90;;;22.70;97.90;;;;;;5015818;28;20824;-69
2023/07/08 07:24:08;;;;;;;1999.90;999.90;;;22.70;98.10;;;;;;5016229;28;20170;-69
2023/07/08 07:26:36;;;;;;;1999.90;999.90;;;22.90;99.90;;;;;;5016061;28;20207;-69
2023/07/08 07:29:02;;;;;;;1999.90;999.90;;;23.10;99.00;;;;;;5015905;28;20223;-69
2023/07/08 07:31:27;;;;;;;1999.90;999.90;;;23.20;99.60;;;;;;5015110;28;20391;-69
2023/07/08 07:33:53;;;;;;;1999.90;999.90;;;23.40;99.30;;;;;;5010234;28;20937;-69
2023/07/08 07:36:18;;;;;;;1999.90;999.90;;;23.60;96.80;;;;;;5015458;28;20279;-69
2023/07/08 07:38:45;;;;;;;1999.90;999.90;;;23.90;95.90;;;;;;5015349;28;20185;-69
2023/07/08 07:41:12;;;;;;;1999.90;999.90;;;24.00;97.30;;;;;;5015713;28;20169;-69
2023/07/08 07:43:38;;;;;;;1999.90;999.90;;;24.10;96.10;;;;;;5016085;28;20461;-69
2023/07/08 07:46:05;;;;;;;1999.90;999.90;;;24.30;94.80;;;;;;5015680;28;20410;-69
2023/07/08 07:48:31;;;;;;;1999.90;999.90;;;24.40;95.50;;;;;;5016010;28;20193;-69
2023/07/08 07:50:57;;;;;;;1999.90;999.90;;;24.60;94.90;;;;;;5015088;28;20408;-69
2023/07/08 07:53:22;;;;;;;1999.90;999.90;;;24.70;94.20;;;;;;5015588;28;20549;-69
2023/07/08 07:55:55;;;;;;;1999.90;999.90;;;24.80;92.10;;;;;;5015828;28;20173;-69
2023/07/08 07:58:20;;;;;;;1999.90;999.90;;;25.00;92.90;;;;;;5007953;28;20173;-69
2023/07/08 08:00:46;;;;;;;1999.90;999.90;;;25.10;93.00;;;;;;5015764;28;20456;-69
2023/07/08 08:03:12;;;;;;;1999.90;999.90;;;25.20;90.60;;;;;;5015685;28;20177;-68
2023/07/08 08:05:37;;;;;;;1999.90;999.90;;;25.40;90.00;;;;;;5015675;28;20626;-68
2023/07/08 08:08:03;;;;;;;1999.90;999.90;;;25.40;88.80;;;;;;5015352;28;20177;-69
2023/07/08 08:10:30;;;;;;;1999.90;999.90;;;25.60;89.80;;;;;;5015679;28;20626;-68
2023/07/08 08:12:56;;;;;;;1999.90;999.90;;;25.70;91.00;;;;;;5014914;28;21002;-68
2023/07/08 08:15:22;;;;;;;1999.90;999.90;;;25.80;83.40;;;;;;5014999;28;20459;-68
2023/07/08 08:17:49;;;;;;;1999.90;999.90;;;26.00;77.50;;;;;;5014758;28;20215;-68
2023/07/08 08:20:14;;;;;;;1999.90;999.90;;;26.10;70.50;;;;;;5015056;28;20486;-69
2023/07/08 08:22:40;;;;;;;1999.90;999.90;;;26.30;63.90;;;;;;5014376;28;20382;-68
2023/07/08 08:25:06;;;;;;;1999.90;999.90;;;26.40;60.90;;;;;;5014462;28;20587;-68
2023/07/08 08:27:32;;;;;;;1999.90;999.90;;;26.40;61.80;;;;;;5014836;28;20189;-69
2023/07/08 08:29:57;;;;;;;1999.90;999.90;;;26.60;58.00;;;;;;5014678;28;20416;-68
2023/07/08 08:32:23;;;;;;;1999.90;999.90;;;26.70;57.40;;;;;;5014631;28;20176;-68
2023/07/08 08:34:48;;;;;;;1999.90;999.90;;;26.80;56.40;;;;;;5014635;28;20281;-68
2023/07/08 08:37:14;;;;;;;1999.90;999.90;;;27.00;56.10;;;;;;5014332;28;20282;-69
2023/07/08 08:39:40;;;;;;;1999.90;999.90;;;27.10;53.60;;;;;;5013423;28;20197;-68
2023/07/08 08:42:18;;;;;;;1999.90;999.90;;;27.20;51.10;;;;;;5012858;28;20165;-68
2023/07/08 08:44:45;;;;;;;1999.90;999.90;;;27.40;50.20;;;;;;5013188;28;20173;-67
2023/07/08 08:47:43;;;;;;;1999.90;999.90;;;27.60;48.40;;;;;;5013170;28;20424;-68
2023/07/08 08:50:30;;;;;;;1999.90;999.90;;;27.70;48.10;;;;;;4987608;28;20440;-70
2023/07/08 08:52:56;;;;;;;1999.90;999.90;;;27.90;48.20;;;;;;4988842;28;21000;-69
2023/07/08 08:55:24;;;;;;;1999.90;999.90;;;28.00;45.80;;;;;;4985732;28;20448;-68
2023/07/08 08:58:11;;;;;;;1999.90;999.90;;;28.10;44.80;;;;;;4989114;28;20468;-68
2023/07/08 09:01:01;;;;;;;1999.90;999.90;;;28.30;42.70;;;;;;4989005;28;20809;-67
2023/07/08 09:03:34;;;;;;;1999.90;999.90;;;28.50;43.00;;;;;;4988573;28;20413;-68
2023/07/08 09:06:00;;;;;;;1999.90;999.90;;;28.60;40.40;;;;;;4988464;28;20424;-68
2023/07/08 09:08:35;;;;;;;1999.90;999.90;;;28.70;36.40;;;;;;4987922;28;20413;-68
2023/07/08 09:11:18;;;;;;;1999.90;999.90;;;28.80;35.00;;;;;;5009218;28;20411;-68
2023/07/08 09:13:44;;;;;;;1999.90;999.90;;;28.90;32.90;;;;;;4989166;28;20425;-68
2023/07/08 09:16:38;;;;;;;1999.90;999.90;;;29.10;34.70;;;;;;5001594;28;20945;-68
2023/07/08 09:19:33;;;;;;;1999.90;999.90;;;29.30;31.00;;;;;;4988513;28;20189;-68
2023/07/08 09:22:21;;;;;;;1999.90;999.90;;;29.40;30.60;;;;;;5004584;28;20432;-68
2023/07/08 09:24:54;;;;;;;1999.90;999.90;;;29.60;29.10;;;;;;5008165;28;20988;-68
2023/07/08 09:27:19;;;;;;;1999.90;999.90;;;29.70;25.40;;;;;;5008632;28;20858;-70
2023/07/08 09:29:46;;;;;;;1999.90;999.90;;;29.80;26.70;;;;;;5007873;28;20419;-68
2023/07/08 09:32:34;;;;;;;1999.90;999.90;;;29.90;23.80;;;;;;5007172;28;20215;-67
2023/07/08 09:35:06;;;;;;;1999.90;999.90;;;30.00;23.70;;;;;;5009362;28;20428;-67
2023/07/08 09:37:34;;;;;;;1999.90;999.90;;;30.00;22.70;;;;;;5010112;28;20857;-68
2023/07/08 09:40:04;;;;;;;1999.90;999.90;;;30.10;22.00;;;;;;5008353;28;20459;-67
2023/07/08 09:42:32;;;;;;;1999.90;999.90;;;30.30;22.30;;;;;;5008355;28;20408;-68
2023/07/08 09:45:10;;;;;;;1999.90;999.90;;;30.50;22.50;;;;;;5008088;28;20976;-67
2023/07/08 09:47:37;;;;;;;1999.90;999.90;;;30.70;20.50;;;;;;5007419;28;20531;-69
2023/07/08 09:50:23;;;;;;;1999.90;999.90;;;30.80;20.40;;;;;;5007557;28;20481;-69
2023/07/08 09:52:50;;;;;;;1999.90;999.90;;;30.80;19.50;;;;;;5006865;28;20478;-70
2023/07/08 09:55:18;;;;;;;1999.90;999.90;;;31.00;20.60;;;;;;5007474;28;20858;-69
2023/07/08 09:57:46;;;;;;;1999.90;999.90;;;31.20;16.90;;;;;;5008136;28;20436;-70
2023/07/08 10:00:19;;;;;;;1999.90;999.90;;;31.30;17.10;;;;;;5007191;28;21195;-69
2023/07/08 10:03:06;;;;;;;1999.90;999.90;;;31.40;15.10;;;;;;5007235;28;20415;-70
2023/07/08 10:05:51;;;;;;;1999.90;999.90;;;31.60;14.50;;;;;;5008014;28;20408;-70
2023/07/08 10:08:19;;;;;;;1999.90;999.90;;;31.70;14.50;;;;;;5007716;28;20408;-69
2023/07/08 10:10:49;;;;;;;1999.90;999.90;;;31.80;14.80;;;;;;5007859;28;20424;-70
2023/07/08 10:13:23;;;;;;;1999.90;999.90;;;31.80;14.30;;;;;;5007079;28;20454;-69
2023/07/08 10:15:55;;;;;;;1999.90;999.90;;;32.00;14.10;;;;;;5006583;28;20514;-70
2023/07/08 10:18:28;;;;;;;1999.90;999.90;;;32.10;11.50;;;;;;5003251;28;20431;-69
2023/07/08 10:21:16;;;;;;;1999.90;999.90;;;32.30;12.70;;;;;;4999706;28;20495;-70
2023/07/08 10:24:11;;;;;;;1999.90;999.90;;;32.40;13.10;;;;;;5005089;28;20427;-70
2023/07/08 10:26:38;;;;;;;1999.90;999.90;;;32.60;11.10;;;;;;4965678;28;20530;-69
2023/07/08 10:29:46;;;;;;;1999.90;999.90;;;32.80;10.20;;;;;;4987508;28;20475;-70
2023/07/08 10:32:52;;;;;;;1999.90;999.90;;;32.90;9.40;;;;;;4986907;28;20409;-70
2023/07/08 10:35:19;;;;;;;1999.90;999.90;;;33.20;11.00;;;;;;4987412;28;20787;-70
2023/07/08 10:37:57;;;;;;;1999.90;999.90;;;33.40;9.10;;;;;;4987033;28;20808;-70
2023/07/08 10:40:57;;;;;;;1999.90;999.90;;;33.40;6.40;;;;;;4987389;28;20500;-70
2023/07/08 10:43:30;;;;;;;1999.90;999.90;;;33.50;6.90;;;;;;4988186;28;20401;-70
2023/07/08 10:46:31;;;;;;;1999.90;999.90;;;33.60;6.60;;;;;;4987531;28;20425;-70
2023/07/08 10:49:05;;;;;;;1999.90;999.90;;;33.80;4.10;;;;;;4987319;28;20424;-70
2023/07/08 10:52:05;;;;;;;1999.90;999.90;;;33.80;3.20;;;;;;4986920;28;20417;-70
2023/07/08 10:54:39;;;;;;;1999.90;999.90;;;33.70;3.20;;;;;;4990937;28;20515;-70
2023/07/08 10:57:21;;;;;;;1999.90;999.90;;;33.80;4.30;;;;;;4991182;28;20901;-69
2023/07/08 11:00:12;;;;;;;1999.90;999.90;;;33.90;2.80;;;;;;4990159;28;20479;-70
2023/07/08 11:02:52;;;;;;;1999.90;999.90;;;34.00;1.80;;;;;;4990663;28;20448;-70
2023/07/08 11:05:47;;;;;;;1999.90;999.90;;;34.10;3.10;;;;;;4991292;28;20393;-70
2023/07/08 11:08:41;;;;;;;1999.90;999.90;;;34.20;1.50;;;;;;4988792;28;20421;-70
2023/07/08 11:11:26;;;;;;;1999.90;999.90;;;34.10;2.20;;;;;;4988024;28;20429;-71
2023/07/08 11:14:24;;;;;;;1999.90;999.90;;;34.10;1.00;;;;;;4991927;28;20922;-72
2023/07/08 11:17:08;;;;;;;1999.90;999.90;;;34.10;2.20;;;;;;4991391;28;20471;-71
2023/07/08 11:19:41;;;;;;;1999.90;999.90;;;34.20;1.30;;;;;;4991537;28;20475;-71
2023/07/08 11:22:12;;;;;;;1999.90;999.90;;;34.40;2.10;;;;;;4991575;28;20770;-72
2023/07/08 11:24:42;;;;;;;1999.90;999.90;;;34.70;1.00;;;;;;4991284;28;20424;-71
2023/07/08 11:27:22;;;;;;;1999.90;999.90;;;34.70;1.00;;;;;;5005667;28;20862;-71
2023/07/08 11:29:55;;;;;;;1999.90;999.90;;;34.90;1.00;;;;;;4990644;28;20412;-71
2023/07/08 11:32:23;;;;;;;1999.90;999.90;;;34.90;1.00;;;;;;4990521;28;20419;-71
2023/07/08 11:34:51;;;;;;;1999.90;999.90;;;35.20;1.00;;;;;;4991241;28;20428;-72
2023/07/08 11:37:18;;;;;;;1999.90;999.90;;;35.40;1.00;;;;;;4991430;28;21137;-72
2023/07/08 11:39:46;;;;;;;1999.90;999.90;;;35.60;1.00;;;;;;4991206;28;20832;-71
2023/07/08 11:42:41;;;;;;;1999.90;999.90;;;35.70;1.00;;;;;;4990937;28;20409;-71
2023/07/08 11:45:25;;;;;;;1999.90;999.90;;;35.70;1.00;;;;;;4991030;28;20412;-71
2023/07/08 11:47:51;;;;;;;1999.90;999.90;;;35.90;1.00;;;;;;4991430;28;20527;-72
2023/07/08 11:50:22;;;;;;;1999.90;999.90;;;36.10;1.00;;;;;;4990759;28;20508;-71
2023/07/08 11:52:53;;;;;;;1999.90;999.90;;;36.30;1.00;;;;;;4989945;28;20178;-72
2023/07/08 11:55:38;;;;;;;1999.90;999.90;;;36.20;1.00;;;;;;4991307;28;20525;-72
2023/07/08 11:58:25;;;;;;;1999.90;999.90;;;36.10;1.00;;;;;;4990856;28;20452;-70
2023/07/08 12:01:19;;;;;;;1999.90;999.90;;;36.10;1.00;;;;;;4990270;28;20492;-70
2023/07/08 12:03:50;;;;;;;1999.90;999.90;;;36.30;1.00;;;;;;4989990;28;20440;-70
2023/07/08 12:06:45;;;;;;;1999.90;999.90;;;36.50;1.00;;;;;;4990301;28;20428;-71
2023/07/08 12:09:25;;;;;;;1999.90;999.90;;;37.00;1.00;;;;;;4998458;28;20437;-70
2023/07/08 12:12:01;;;;;;;1999.90;999.90;;;37.30;1.00;;;;;;5005998;28;20642;-70
2023/07/08 12:14:28;;;;;;;1999.90;999.90;;;37.90;1.00;;;;;;5008168;28;20491;-70
2023/07/08 12:16:55;;;;;;;1999.90;999.90;;;38.50;1.00;;;;;;5010778;28;20455;-70